sensor_id;sensor_type;location;lat;lon;timestamp;temperature;humidity
72288;SHT31;60221;45.696;16.076;2022-07-10T00:00:44;20.49;65.19
72288;SHT31;60221;45.696;16.076;2022-07-10T00:03:10;21.78;64.49
72288;SHT31;60221;45.696;16.076;2022-07-10T00:05:36;22.34;61.83
72288;SHT31;60221;45.696;16.076;2022-07-10T00:08:03;22.61;59.65
72288;SHT31;60221;45.696;16.076;2022-07-10T00:10:29;22.36;56.91
72288;SHT31;60221;45.696;16.076;2022-07-10T00:12:57;21.71;57.06
72288;SHT31;60221;45.696;16.076;2022-07-10T00:15:23;21.21;57.76
72288;SHT31;60221;45.696;16.076;2022-07-10T00:17:49;20.84;58.49
72288;SHT31;60221;45.696;16.076;2022-07-10T00:20:16;20.53;59.01
72288;SHT31;60221;45.696;16.076;2022-07-10T00:22:43;20.31;59.72
72288;SHT31;60221;45.696;16.076;2022-07-10T00:25:12;20.07;60.17
72288;SHT31;60221;45.696;16.076;2022-07-10T00:27:40;19.88;60.63
72288;SHT31;60221;45.696;16.076;2022-07-10T00:30:09;19.69;61.32
72288;SHT31;60221;45.696;16.076;2022-07-10T00:32:36;19.52;61.81
72288;SHT31;60221;45.696;16.076;2022-07-10T00:35:05;19.35;62.28
72288;SHT31;60221;45.696;16.076;2022-07-10T00:37:31;20.29;67.36
72288;SHT31;60221;45.696;16.076;2022-07-10T00:39:57;21.95;66.00
72288;SHT31;60221;45.696;16.076;2022-07-10T00:42:26;23.01;61.26
72288;SHT31;60221;45.696;16.076;2022-07-10T00:44:53;23.71;57.70
72288;SHT31;60221;45.696;16.076;2022-07-10T00:47:19;23.43;53.86
72288;SHT31;60221;45.696;16.076;2022-07-10T00:49:46;22.51;54.07
72288;SHT31;60221;45.696;16.076;2022-07-10T00:52:17;21.74;56.09
72288;SHT31;60221;45.696;16.076;2022-07-10T00:54:47;21.18;56.88
72288;SHT31;60221;45.696;16.076;2022-07-10T00:57:15;20.73;57.65
72288;SHT31;60221;45.696;16.076;2022-07-10T00:59:41;20.41;58.82
72288;SHT31;60221;45.696;16.076;2022-07-10T01:02:09;20.20;59.41
72288;SHT31;60221;45.696;16.076;2022-07-10T01:04:36;19.97;60.08
72288;SHT31;60221;45.696;16.076;2022-07-10T01:07:04;19.77;60.88
72288;SHT31;60221;45.696;16.076;2022-07-10T01:09:32;19.60;61.54
72288;SHT31;60221;45.696;16.076;2022-07-10T01:12:01;19.46;62.08
72288;SHT31;60221;45.696;16.076;2022-07-10T01:14:29;20.36;66.67
72288;SHT31;60221;45.696;16.076;2022-07-10T01:16:58;21.78;65.82
72288;SHT31;60221;45.696;16.076;2022-07-10T01:19:25;22.72;61.61
72288;SHT31;60221;45.696;16.076;2022-07-10T01:21:51;23.46;58.55
72288;SHT31;60221;45.696;16.076;2022-07-10T01:24:17;23.22;55.21
72288;SHT31;60221;45.696;16.076;2022-07-10T01:26:44;22.37;55.21
72288;SHT31;60221;45.696;16.076;2022-07-10T01:29:11;21.69;56.28
72288;SHT31;60221;45.696;16.076;2022-07-10T01:31:37;21.24;57.47
72288;SHT31;60221;45.696;16.076;2022-07-10T01:34:07;20.89;58.30
72288;SHT31;60221;45.696;16.076;2022-07-10T01:36:36;20.63;59.23
72288;SHT31;60221;45.696;16.076;2022-07-10T01:39:05;20.39;59.87
72288;SHT31;60221;45.696;16.076;2022-07-10T01:41:31;20.18;60.81
72288;SHT31;60221;45.696;16.076;2022-07-10T01:43:58;19.98;61.31
72288;SHT31;60221;45.696;16.076;2022-07-10T01:46:24;19.79;61.96
72288;SHT31;60221;45.696;16.076;2022-07-10T01:48:51;20.62;65.95
72288;SHT31;60221;45.696;16.076;2022-07-10T01:51:20;22.17;65.18
72288;SHT31;60221;45.696;16.076;2022-07-10T01:53:46;22.89;61.05
72288;SHT31;60221;45.696;16.076;2022-07-10T01:56:14;23.34;58.62
72288;SHT31;60221;45.696;16.076;2022-07-10T01:58:41;22.96;55.77
72288;SHT31;60221;45.696;16.076;2022-07-10T02:01:08;22.20;56.27
72288;SHT31;60221;45.696;16.076;2022-07-10T02:03:34;21.61;57.63
72288;SHT31;60221;45.696;16.076;2022-07-10T02:06:19;21.13;58.31
72288;SHT31;60221;45.696;16.076;2022-07-10T02:08:45;20.83;59.31
72288;SHT31;60221;45.696;16.076;2022-07-10T02:11:11;20.59;60.29
72288;SHT31;60221;45.696;16.076;2022-07-10T02:13:39;20.29;61.01
72288;SHT31;60221;45.696;16.076;2022-07-10T02:16:06;20.10;61.73
72288;SHT31;60221;45.696;16.076;2022-07-10T02:18:32;19.93;62.15
72288;SHT31;60221;45.696;16.076;2022-07-10T02:20:58;20.72;66.65
72288;SHT31;60221;45.696;16.076;2022-07-10T02:23:24;22.06;65.91
72288;SHT31;60221;45.696;16.076;2022-07-10T02:25:50;22.82;62.15
72288;SHT31;60221;45.696;16.076;2022-07-10T02:28:16;23.36;59.66
72288;SHT31;60221;45.696;16.076;2022-07-10T02:30:42;23.16;56.44
72288;SHT31;60221;45.696;16.076;2022-07-10T02:33:09;22.39;56.48
72288;SHT31;60221;45.696;16.076;2022-07-10T02:35:35;21.78;57.40
72288;SHT31;60221;45.696;16.076;2022-07-10T02:38:01;21.35;58.35
72288;SHT31;60221;45.696;16.076;2022-07-10T02:40:27;20.99;59.47
72288;SHT31;60221;45.696;16.076;2022-07-10T02:42:53;20.69;60.02
72288;SHT31;60221;45.696;16.076;2022-07-10T02:45:19;20.42;61.05
72288;SHT31;60221;45.696;16.076;2022-07-10T02:47:45;20.23;62.08
72288;SHT31;60221;45.696;16.076;2022-07-10T02:50:12;20.79;63.10
72288;SHT31;60221;45.696;16.076;2022-07-10T02:52:38;21.86;64.77
72288;SHT31;60221;45.696;16.076;2022-07-10T02:55:06;22.51;62.06
72288;SHT31;60221;45.696;16.076;2022-07-10T02:57:32;22.84;60.00
72288;SHT31;60221;45.696;16.076;2022-07-10T02:59:58;23.10;58.86
72288;SHT31;60221;45.696;16.076;2022-07-10T03:02:24;22.79;56.44
72288;SHT31;60221;45.696;16.076;2022-07-10T03:04:50;22.16;56.68
72288;SHT31;60221;45.696;16.076;2022-07-10T03:07:16;21.62;57.31
72288;SHT31;60221;45.696;16.076;2022-07-10T03:09:42;21.24;58.19
72288;SHT31;60221;45.696;16.076;2022-07-10T03:12:08;20.90;59.82
72288;SHT31;60221;45.696;16.076;2022-07-10T03:14:34;20.60;60.79
72288;SHT31;60221;45.696;16.076;2022-07-10T03:17:00;20.29;60.80
72288;SHT31;60221;45.696;16.076;2022-07-10T03:19:26;20.08;61.25
72288;SHT31;60221;45.696;16.076;2022-07-10T03:21:52;19.90;61.91
72288;SHT31;60221;45.696;16.076;2022-07-10T03:24:18;20.44;64.71
72288;SHT31;60221;45.696;16.076;2022-07-10T03:26:45;21.58;64.96
72288;SHT31;60221;45.696;16.076;2022-07-10T03:29:11;22.61;61.81
72288;SHT31;60221;45.696;16.076;2022-07-10T03:31:37;23.24;60.27
72288;SHT31;60221;45.696;16.076;2022-07-10T03:34:03;23.05;56.79
72288;SHT31;60221;45.696;16.076;2022-07-10T03:36:30;22.27;56.78
72288;SHT31;60221;45.696;16.076;2022-07-10T03:38:56;21.64;57.92
72288;SHT31;60221;45.696;16.076;2022-07-10T03:41:22;21.23;58.76
72288;SHT31;60221;45.696;16.076;2022-07-10T03:43:48;20.91;59.90
72288;SHT31;60221;45.696;16.076;2022-07-10T03:46:14;20.63;60.49
72288;SHT31;60221;45.696;16.076;2022-07-10T03:48:40;20.41;61.16
72288;SHT31;60221;45.696;16.076;2022-07-10T03:51:06;20.20;61.87
72288;SHT31;60221;45.696;16.076;2022-07-10T03:53:32;20.97;66.27
72288;SHT31;60221;45.696;16.076;2022-07-10T03:55:58;22.21;64.46
72288;SHT31;60221;45.696;16.076;2022-07-10T03:58:26;23.01;60.97
72288;SHT31;60221;45.696;16.076;2022-07-10T04:00:53;23.50;58.82
72288;SHT31;60221;45.696;16.076;2022-07-10T04:03:19;23.23;55.48
72288;SHT31;60221;45.696;16.076;2022-07-10T04:05:45;22.48;55.57
72288;SHT31;60221;45.696;16.076;2022-07-10T04:08:11;21.89;56.73
72288;SHT31;60221;45.696;16.076;2022-07-10T04:10:37;21.48;57.80
72288;SHT31;60221;45.696;16.076;2022-07-10T04:13:04;21.14;58.77
72288;SHT31;60221;45.696;16.076;2022-07-10T04:15:30;20.87;59.66
72288;SHT31;60221;45.696;16.076;2022-07-10T04:17:57;20.62;60.39
72288;SHT31;60221;45.696;16.076;2022-07-10T04:20:23;20.44;61.04
72288;SHT31;60221;45.696;16.076;2022-07-10T04:22:50;20.27;61.70
72288;SHT31;60221;45.696;16.076;2022-07-10T04:25:17;20.13;62.01
72288;SHT31;60221;45.696;16.076;2022-07-10T04:27:43;20.87;65.83
72288;SHT31;60221;45.696;16.076;2022-07-10T04:30:10;22.10;63.56
72288;SHT31;60221;45.696;16.076;2022-07-10T04:32:37;22.94;60.58
72288;SHT31;60221;45.696;16.076;2022-07-10T04:35:05;23.70;58.42
72288;SHT31;60221;45.696;16.076;2022-07-10T04:37:31;23.67;54.77
72288;SHT31;60221;45.696;16.076;2022-07-10T04:39:57;23.09;55.06
72288;SHT31;60221;45.696;16.076;2022-07-10T04:42:23;22.64;55.85
72288;SHT31;60221;45.696;16.076;2022-07-10T04:44:49;22.34;56.39
72288;SHT31;60221;45.696;16.076;2022-07-10T04:47:15;22.17;58.51
72288;SHT31;60221;45.696;16.076;2022-07-10T04:49:41;22.19;59.48
72288;SHT31;60221;45.696;16.076;2022-07-10T04:52:08;22.54;59.02
72288;SHT31;60221;45.696;16.076;2022-07-10T04:54:34;22.99;59.71
72288;SHT31;60221;45.696;16.076;2022-07-10T04:57:00;23.51;59.58
72288;SHT31;60221;45.696;16.076;2022-07-10T04:59:26;24.06;58.09
72288;SHT31;60221;45.696;16.076;2022-07-10T05:01:52;24.63;57.00
72288;SHT31;60221;45.696;16.076;2022-07-10T05:04:19;25.21;55.49
72288;SHT31;60221;45.696;16.076;2022-07-10T05:06:45;25.74;54.35
72288;SHT31;60221;45.696;16.076;2022-07-10T05:09:11;26.18;53.47
72288;SHT31;60221;45.696;16.076;2022-07-10T05:11:37;26.59;52.60
72288;SHT31;60221;45.696;16.076;2022-07-10T05:14:03;26.86;51.94
72288;SHT31;60221;45.696;16.076;2022-07-10T05:16:29;27.03;50.76
72288;SHT31;60221;45.696;16.076;2022-07-10T05:18:55;27.31;50.18
72288;SHT31;60221;45.696;16.076;2022-07-10T05:21:21;27.58;49.60
72288;SHT31;60221;45.696;16.076;2022-07-10T05:23:47;27.52;48.30
72288;SHT31;60221;45.696;16.076;2022-07-10T05:26:13;27.34;48.36
72288;SHT31;60221;45.696;16.076;2022-07-10T05:28:39;27.14;48.55
72288;SHT31;60221;45.696;16.076;2022-07-10T05:31:05;26.97;49.17
72288;SHT31;60221;45.696;16.076;2022-07-10T05:33:32;26.79;49.07
72288;SHT31;60221;45.696;16.076;2022-07-10T05:35:58;26.58;48.45
72288;SHT31;60221;45.696;16.076;2022-07-10T05:38:24;26.42;48.94
72288;SHT31;60221;45.696;16.076;2022-07-10T05:40:50;26.27;48.96
72288;SHT31;60221;45.696;16.076;2022-07-10T05:43:18;26.12;49.20
72288;SHT31;60221;45.696;16.076;2022-07-10T05:45:44;25.98;49.54
72288;SHT31;60221;45.696;16.076;2022-07-10T05:48:10;25.87;49.56
72288;SHT31;60221;45.696;16.076;2022-07-10T05:50:36;25.76;49.78
72288;SHT31;60221;45.696;16.076;2022-07-10T05:53:02;25.81;49.95
72288;SHT31;60221;45.696;16.076;2022-07-10T05:55:28;25.93;50.08
72288;SHT31;60221;45.696;16.076;2022-07-10T05:57:54;25.84;50.27
72288;SHT31;60221;45.696;16.076;2022-07-10T06:00:21;25.67;50.10
72288;SHT31;60221;45.696;16.076;2022-07-10T06:02:47;25.45;50.58
72288;SHT31;60221;45.696;16.076;2022-07-10T06:05:13;25.30;51.14
72288;SHT31;60221;45.696;16.076;2022-07-10T06:07:39;25.26;51.80
72288;SHT31;60221;45.696;16.076;2022-07-10T06:10:07;25.26;51.84
72288;SHT31;60221;45.696;16.076;2022-07-10T06:12:33;25.29;51.70
72288;SHT31;60221;45.696;16.076;2022-07-10T06:14:59;25.52;52.16
72288;SHT31;60221;45.696;16.076;2022-07-10T06:17:26;25.98;50.97
72288;SHT31;60221;45.696;16.076;2022-07-10T06:19:52;26.43;50.75
72288;SHT31;60221;45.696;16.076;2022-07-10T06:22:18;26.56;49.59
72288;SHT31;60221;45.696;16.076;2022-07-10T06:24:58;26.77;49.54
72288;SHT31;60221;45.696;16.076;2022-07-10T06:27:24;26.91;49.43
72288;SHT31;60221;45.696;16.076;2022-07-10T06:29:50;26.91;48.39
72288;SHT31;60221;45.696;16.076;2022-07-10T06:32:16;26.91;48.12
72288;SHT31;60221;45.696;16.076;2022-07-10T06:34:42;26.90;47.82
72288;SHT31;60221;45.696;16.076;2022-07-10T06:37:08;26.86;47.95
72288;SHT31;60221;45.696;16.076;2022-07-10T06:39:35;26.79;47.91
72288;SHT31;60221;45.696;16.076;2022-07-10T06:42:06;26.75;48.23
72288;SHT31;60221;45.696;16.076;2022-07-10T06:44:34;26.63;48.25
72288;SHT31;60221;45.696;16.076;2022-07-10T06:47:00;26.52;48.63
72288;SHT31;60221;45.696;16.076;2022-07-10T06:49:47;26.50;48.69
72288;SHT31;60221;45.696;16.076;2022-07-10T06:52:15;26.45;49.11
72288;SHT31;60221;45.696;16.076;2022-07-10T06:54:42;26.43;49.45
72288;SHT31;60221;45.696;16.076;2022-07-10T06:57:09;26.43;49.04
72288;SHT31;60221;45.696;16.076;2022-07-10T06:59:36;26.42;49.03
72288;SHT31;60221;45.696;16.076;2022-07-10T07:02:02;26.53;49.28
72288;SHT31;60221;45.696;16.076;2022-07-10T07:04:30;26.76;49.44
72288;SHT31;60221;45.696;16.076;2022-07-10T07:06:56;27.10;49.44
72288;SHT31;60221;45.696;16.076;2022-07-10T07:09:23;27.49;48.74
72288;SHT31;60221;45.696;16.076;2022-07-10T07:11:49;27.65;47.75
72288;SHT31;60221;45.696;16.076;2022-07-10T07:14:15;27.65;48.28
72288;SHT31;60221;45.696;16.076;2022-07-10T07:16:41;27.78;48.05
72288;SHT31;60221;45.696;16.076;2022-07-10T07:19:10;27.89;48.08
72288;SHT31;60221;45.696;16.076;2022-07-10T07:21:38;28.04;47.90
72288;SHT31;60221;45.696;16.076;2022-07-10T07:24:22;28.14;46.61
72288;SHT31;60221;45.696;16.076;2022-07-10T07:26:49;28.14;46.27
72288;SHT31;60221;45.696;16.076;2022-07-10T07:29:17;28.13;46.01
72288;SHT31;60221;45.696;16.076;2022-07-10T07:31:44;28.03;45.92
72288;SHT31;60221;45.696;16.076;2022-07-10T07:34:11;27.97;45.36
72288;SHT31;60221;45.696;16.076;2022-07-10T07:36:37;27.95;45.56
72288;SHT31;60221;45.696;16.076;2022-07-10T07:39:04;28.03;45.56
72288;SHT31;60221;45.696;16.076;2022-07-10T07:41:30;27.90;45.22
72288;SHT31;60221;45.696;16.076;2022-07-10T07:43:56;27.75;44.93
72288;SHT31;60221;45.696;16.076;2022-07-10T07:46:22;27.66;45.19
72288;SHT31;60221;45.696;16.076;2022-07-10T07:48:50;27.52;45.47
72288;SHT31;60221;45.696;16.076;2022-07-10T07:51:17;27.30;44.78
72288;SHT31;60221;45.696;16.076;2022-07-10T07:53:43;27.06;45.11
72288;SHT31;60221;45.696;16.076;2022-07-10T07:56:09;26.86;45.78
72288;SHT31;60221;45.696;16.076;2022-07-10T07:58:35;26.59;45.83
72288;SHT31;60221;45.696;16.076;2022-07-10T08:01:01;26.38;46.08
72288;SHT31;60221;45.696;16.076;2022-07-10T08:03:28;26.21;46.38
72288;SHT31;60221;45.696;16.076;2022-07-10T08:05:54;26.05;46.47
72288;SHT31;60221;45.696;16.076;2022-07-10T08:08:20;26.04;46.25
72288;SHT31;60221;45.696;16.076;2022-07-10T08:10:46;25.97;46.54
72288;SHT31;60221;45.696;16.076;2022-07-10T08:13:12;26.00;46.92
72288;SHT31;60221;45.696;16.076;2022-07-10T08:15:39;26.12;47.22
72288;SHT31;60221;45.696;16.076;2022-07-10T08:18:05;26.21;46.61
72288;SHT31;60221;45.696;16.076;2022-07-10T08:20:33;26.24;45.46
72288;SHT31;60221;45.696;16.076;2022-07-10T08:22:59;26.25;45.15
72288;SHT31;60221;45.696;16.076;2022-07-10T08:25:27;26.25;45.29
72288;SHT31;60221;45.696;16.076;2022-07-10T08:28:02;26.27;45.98
72288;SHT31;60221;45.696;16.076;2022-07-10T08:30:30;26.21;46.76
72288;SHT31;60221;45.696;16.076;2022-07-10T08:32:56;26.07;46.79
72288;SHT31;60221;45.696;16.076;2022-07-10T08:35:22;26.01;47.32
72288;SHT31;60221;45.696;16.076;2022-07-10T08:37:48;25.94;47.35
72288;SHT31;60221;45.696;16.076;2022-07-10T08:40:16;25.84;46.70
72288;SHT31;60221;45.696;16.076;2022-07-10T08:42:44;25.76;47.65
72288;SHT31;60221;45.696;16.076;2022-07-10T08:45:13;25.77;47.64
72288;SHT31;60221;45.696;16.076;2022-07-10T08:47:40;25.73;47.91
72288;SHT31;60221;45.696;16.076;2022-07-10T08:50:23;25.79;47.37
72288;SHT31;60221;45.696;16.076;2022-07-10T08:53:00;25.76;45.92
72288;SHT31;60221;45.696;16.076;2022-07-10T08:55:27;25.79;46.74
72288;SHT31;60221;45.696;16.076;2022-07-10T08:57:54;25.98;46.45
72288;SHT31;60221;45.696;16.076;2022-07-10T09:00:24;26.30;46.07
72288;SHT31;60221;45.696;16.076;2022-07-10T09:02:53;26.73;46.05
72288;SHT31;60221;45.696;16.076;2022-07-10T09:05:19;27.10;45.05
72288;SHT31;60221;45.696;16.076;2022-07-10T09:07:45;27.31;43.69
72288;SHT31;60221;45.696;16.076;2022-07-10T09:10:12;27.49;43.22
72288;SHT31;60221;45.696;16.076;2022-07-10T09:12:49;27.53;42.53
72288;SHT31;60221;45.696;16.076;2022-07-10T09:15:18;27.71;42.30
72288;SHT31;60221;45.696;16.076;2022-07-10T09:17:58;27.75;40.31
72288;SHT31;60221;45.696;16.076;2022-07-10T09:20:36;27.63;38.52
72288;SHT31;60221;45.696;16.076;2022-07-10T09:23:21;27.52;40.66
72288;SHT31;60221;45.696;16.076;2022-07-10T09:25:52;27.40;40.16
72288;SHT31;60221;45.696;16.076;2022-07-10T09:28:22;27.28;41.48
72288;SHT31;60221;45.696;16.076;2022-07-10T09:30:49;27.21;41.10
72288;SHT31;60221;45.696;16.076;2022-07-10T09:33:22;27.24;41.16
72288;SHT31;60221;45.696;16.076;2022-07-10T09:36:08;27.31;41.22
72288;SHT31;60221;45.696;16.076;2022-07-10T09:38:49;27.34;41.49
72288;SHT31;60221;45.696;16.076;2022-07-10T09:41:22;27.23;41.39
72288;SHT31;60221;45.696;16.076;2022-07-10T09:43:58;27.08;42.02
72288;SHT31;60221;45.696;16.076;2022-07-10T09:46:36;26.89;42.51
72288;SHT31;60221;45.696;16.076;2022-07-10T09:49:08;26.76;42.38
72288;SHT31;60221;45.696;16.076;2022-07-10T09:51:37;26.58;42.78
72288;SHT31;60221;45.696;16.076;2022-07-10T09:54:06;26.46;43.37
72288;SHT31;60221;45.696;16.076;2022-07-10T09:56:46;26.32;43.72
72288;SHT31;60221;45.696;16.076;2022-07-10T09:59:16;26.28;43.75
72288;SHT31;60221;45.696;16.076;2022-07-10T10:01:49;26.30;44.40
72288;SHT31;60221;45.696;16.076;2022-07-10T10:04:21;26.32;43.68
72288;SHT31;60221;45.696;16.076;2022-07-10T10:06:58;26.39;42.51
72288;SHT31;60221;45.696;16.076;2022-07-10T10:09:41;26.50;42.89
72288;SHT31;60221;45.696;16.076;2022-07-10T10:12:21;26.59;41.09
72288;SHT31;60221;45.696;16.076;2022-07-10T10:14:49;26.64;40.47
72288;SHT31;60221;45.696;16.076;2022-07-10T10:17:19;26.64;40.54
72288;SHT31;60221;45.696;16.076;2022-07-10T10:19:46;26.75;38.74
72288;SHT31;60221;45.696;16.076;2022-07-10T10:22:33;26.69;38.12
72288;SHT31;60221;45.696;16.076;2022-07-10T10:25:01;26.60;38.95
72288;SHT31;60221;45.696;16.076;2022-07-10T10:27:29;26.59;39.65
72288;SHT31;60221;45.696;16.076;2022-07-10T10:29:56;26.60;40.10
72288;SHT31;60221;45.696;16.076;2022-07-10T10:32:23;26.64;40.18
72288;SHT31;60221;45.696;16.076;2022-07-10T10:34:50;26.77;40.14
72288;SHT31;60221;45.696;16.076;2022-07-10T10:40:07;26.93;40.13
72288;SHT31;60221;45.696;16.076;2022-07-10T10:42:40;27.03;39.12
72288;SHT31;60221;45.696;16.076;2022-07-10T10:45:30;27.14;39.69
72288;SHT31;60221;45.696;16.076;2022-07-10T10:48:09;27.24;39.77
72288;SHT31;60221;45.696;16.076;2022-07-10T10:50:48;27.37;39.09
72288;SHT31;60221;45.696;16.076;2022-07-10T10:53:29;27.41;40.20
72288;SHT31;60221;45.696;16.076;2022-07-10T10:57:18;27.41;39.48
72288;SHT31;60221;45.696;16.076;2022-07-10T10:59:51;27.28;39.63
72288;SHT31;60221;45.696;16.076;2022-07-10T11:02:31;27.18;39.42
72288;SHT31;60221;45.696;16.076;2022-07-10T11:07:57;27.06;39.18
72288;SHT31;60221;45.696;16.076;2022-07-10T11:10:38;27.03;39.28
72288;SHT31;60221;45.696;16.076;2022-07-10T11:13:12;27.04;39.55
72288;SHT31;60221;45.696;16.076;2022-07-10T11:15:41;27.01;39.32
72288;SHT31;60221;45.696;16.076;2022-07-10T11:18:22;27.03;39.44
72288;SHT31;60221;45.696;16.076;2022-07-10T11:20:51;27.06;38.77
72288;SHT31;60221;45.696;16.076;2022-07-10T11:29:06;27.25;40.76
72288;SHT31;60221;45.696;16.076;2022-07-10T11:31:34;27.35;40.83
72288;SHT31;60221;45.696;16.076;2022-07-10T11:34:02;27.52;40.32
72288;SHT31;60221;45.696;16.076;2022-07-10T11:36:29;27.68;40.03
72288;SHT31;60221;45.696;16.076;2022-07-10T11:39:05;27.79;38.91
72288;SHT31;60221;45.696;16.076;2022-07-10T11:41:32;27.92;39.26
72288;SHT31;60221;45.696;16.076;2022-07-10T11:44:02;28.07;38.70
72288;SHT31;60221;45.696;16.076;2022-07-10T11:46:32;28.23;38.72
72288;SHT31;60221;45.696;16.076;2022-07-10T11:49:05;28.43;38.79
72288;SHT31;60221;45.696;16.076;2022-07-10T11:51:36;28.66;38.36
72288;SHT31;60221;45.696;16.076;2022-07-10T11:54:15;28.95;35.56
72288;SHT31;60221;45.696;16.076;2022-07-10T11:56:52;29.10;35.73
72288;SHT31;60221;45.696;16.076;2022-07-10T11:59:25;29.19;35.91
72288;SHT31;60221;45.696;16.076;2022-07-10T12:01:55;29.26;35.42
72288;SHT31;60221;45.696;16.076;2022-07-10T12:04:24;29.23;35.34
72288;SHT31;60221;45.696;16.076;2022-07-10T12:06:53;29.26;36.14
72288;SHT31;60221;45.696;16.076;2022-07-10T12:09:24;29.33;36.43
72288;SHT31;60221;45.696;16.076;2022-07-10T12:12:05;29.40;36.81
72288;SHT31;60221;45.696;16.076;2022-07-10T12:14:33;29.54;36.01
72288;SHT31;60221;45.696;16.076;2022-07-10T12:17:00;29.57;35.76
72288;SHT31;60221;45.696;16.076;2022-07-10T12:19:30;29.61;35.96
72288;SHT31;60221;45.696;16.076;2022-07-10T12:21:59;29.64;36.79
72288;SHT31;60221;45.696;16.076;2022-07-10T12:24:27;29.58;36.08
72288;SHT31;60221;45.696;16.076;2022-07-10T12:26:54;29.58;36.20
72288;SHT31;60221;45.696;16.076;2022-07-10T12:29:29;29.67;36.48
72288;SHT31;60221;45.696;16.076;2022-07-10T12:31:58;29.84;36.20
72288;SHT31;60221;45.696;16.076;2022-07-10T12:34:41;29.85;35.53
72288;SHT31;60221;45.696;16.076;2022-07-10T12:37:14;29.96;35.90
72288;SHT31;60221;45.696;16.076;2022-07-10T12:39:53;30.05;36.17
72288;SHT31;60221;45.696;16.076;2022-07-10T12:42:30;30.19;35.58
72288;SHT31;60221;45.696;16.076;2022-07-10T12:45:15;30.23;35.66
72288;SHT31;60221;45.696;16.076;2022-07-10T12:47:47;30.23;35.62
72288;SHT31;60221;45.696;16.076;2022-07-10T12:50:16;30.24;36.26
72288;SHT31;60221;45.696;16.076;2022-07-10T12:52:44;30.27;36.14
72288;SHT31;60221;45.696;16.076;2022-07-10T12:55:21;30.37;36.42
72288;SHT31;60221;45.696;16.076;2022-07-10T12:58:05;30.46;36.55
72288;SHT31;60221;45.696;16.076;2022-07-10T13:00:36;30.54;35.77
72288;SHT31;60221;45.696;16.076;2022-07-10T13:03:09;30.60;35.81
72288;SHT31;60221;45.696;16.076;2022-07-10T13:05:39;30.73;35.45
72288;SHT31;60221;45.696;16.076;2022-07-10T13:08:19;30.81;35.54
72288;SHT31;60221;45.696;16.076;2022-07-10T13:10:58;30.87;35.35
72288;SHT31;60221;45.696;16.076;2022-07-10T13:13:22;30.87;35.84
72288;SHT31;60221;45.696;16.076;2022-07-10T13:15:49;31.01;35.50
72288;SHT31;60221;45.696;16.076;2022-07-10T13:18:26;31.11;35.20
72288;SHT31;60221;45.696;16.076;2022-07-10T13:20:55;31.21;34.32
72288;SHT31;60221;45.696;16.076;2022-07-10T13:23:22;31.11;33.34
72288;SHT31;60221;45.696;16.076;2022-07-10T13:25:50;30.95;33.75
72288;SHT31;60221;45.696;16.076;2022-07-10T13:28:16;30.97;34.32
72288;SHT31;60221;45.696;16.076;2022-07-10T13:30:43;30.99;35.15
72288;SHT31;60221;45.696;16.076;2022-07-10T13:33:10;31.09;35.58
72288;SHT31;60221;45.696;16.076;2022-07-10T13:35:36;31.28;35.88
72288;SHT31;60221;45.696;16.076;2022-07-10T13:38:04;31.46;35.50
72288;SHT31;60221;45.696;16.076;2022-07-10T13:40:34;31.67;34.37
72288;SHT31;60221;45.696;16.076;2022-07-10T13:43:02;31.73;33.78
72288;SHT31;60221;45.696;16.076;2022-07-10T13:45:30;31.54;32.91
72288;SHT31;60221;45.696;16.076;2022-07-10T13:48:01;31.35;33.77
72288;SHT31;60221;45.696;16.076;2022-07-10T13:50:27;30.99;33.27
72288;SHT31;60221;45.696;16.076;2022-07-10T13:52:53;30.70;32.75
72288;SHT31;60221;45.696;16.076;2022-07-10T13:55:19;30.39;33.50
72288;SHT31;60221;45.696;16.076;2022-07-10T13:57:46;30.12;34.35
72288;SHT31;60221;45.696;16.076;2022-07-10T14:00:12;29.89;33.99
72288;SHT31;60221;45.696;16.076;2022-07-10T14:02:39;29.69;34.31
72288;SHT31;60221;45.696;16.076;2022-07-10T14:05:07;29.57;34.65
72288;SHT31;60221;45.696;16.076;2022-07-10T14:07:36;29.54;35.10
72288;SHT31;60221;45.696;16.076;2022-07-10T14:10:04;29.64;34.92
72288;SHT31;60221;45.696;16.076;2022-07-10T14:12:32;29.79;34.74
72288;SHT31;60221;45.696;16.076;2022-07-10T14:14:58;29.98;34.70
72288;SHT31;60221;45.696;16.076;2022-07-10T14:17:26;30.01;33.71
72288;SHT31;60221;45.696;16.076;2022-07-10T14:19:53;29.93;34.42
72288;SHT31;60221;45.696;16.076;2022-07-10T14:22:19;29.98;34.56
72288;SHT31;60221;45.696;16.076;2022-07-10T14:24:50;29.95;34.55
72288;SHT31;60221;45.696;16.076;2022-07-10T14:27:17;29.91;34.82
72288;SHT31;60221;45.696;16.076;2022-07-10T14:29:43;29.82;35.81
72288;SHT31;60221;45.696;16.076;2022-07-10T14:32:09;29.74;35.88
72288;SHT31;60221;45.696;16.076;2022-07-10T14:34:35;29.65;35.52
72288;SHT31;60221;45.696;16.076;2022-07-10T14:37:02;29.57;34.22
72288;SHT31;60221;45.696;16.076;2022-07-10T14:39:28;29.46;35.22
72288;SHT31;60221;45.696;16.076;2022-07-10T14:41:54;29.10;35.74
72288;SHT31;60221;45.696;16.076;2022-07-10T14:44:21;28.71;36.50
72288;SHT31;60221;45.696;16.076;2022-07-10T14:46:47;28.38;36.93
72288;SHT31;60221;45.696;16.076;2022-07-10T14:49:14;28.14;37.35
72288;SHT31;60221;45.696;16.076;2022-07-10T14:51:40;27.96;37.63
72288;SHT31;60221;45.696;16.076;2022-07-10T14:54:07;27.73;37.77
72288;SHT31;60221;45.696;16.076;2022-07-10T14:56:34;27.46;38.20
72288;SHT31;60221;45.696;16.076;2022-07-10T14:59:00;27.21;38.66
72288;SHT31;60221;45.696;16.076;2022-07-10T15:01:27;26.94;39.09
72288;SHT31;60221;45.696;16.076;2022-07-10T15:03:54;26.66;40.07
72288;SHT31;60221;45.696;16.076;2022-07-10T15:06:22;26.45;40.58
72288;SHT31;60221;45.696;16.076;2022-07-10T15:08:48;26.30;40.78
72288;SHT31;60221;45.696;16.076;2022-07-10T15:11:17;26.11;41.05
72288;SHT31;60221;45.696;16.076;2022-07-10T15:13:44;25.98;41.53
72288;SHT31;60221;45.696;16.076;2022-07-10T15:16:10;25.81;41.75
72288;SHT31;60221;45.696;16.076;2022-07-10T15:18:36;25.67;42.13
72288;SHT31;60221;45.696;16.076;2022-07-10T15:21:02;25.57;42.40
72288;SHT31;60221;45.696;16.076;2022-07-10T15:23:29;25.46;42.50
72288;SHT31;60221;45.696;16.076;2022-07-10T15:25:55;25.35;42.53
72288;SHT31;60221;45.696;16.076;2022-07-10T15:28:21;25.21;42.68
72288;SHT31;60221;45.696;16.076;2022-07-10T15:30:47;25.11;43.02
72288;SHT31;60221;45.696;16.076;2022-07-10T15:33:13;25.02;43.24
72288;SHT31;60221;45.696;16.076;2022-07-10T15:35:39;24.98;43.56